createdAt,value
2023-01-03T00:04:49.696Z,94106.48
2023-01-03T00:13:13.057Z,94228.88
2023-01-03T00:21:36.473Z,94353.09
2023-01-03T00:29:59.292Z,94434.91
2023-01-03T00:38:22.088Z,94485.38
2023-01-03T00:46:47.299Z,94528.27
2023-01-03T00:55:10.956Z,94578.35
2023-01-03T01:03:35.655Z,94617.41
2023-01-03T01:11:58.876Z,94639.72
2023-01-03T01:20:21.680Z,94662.77
2023-01-03T01:28:44.740Z,94664.21
2023-01-03T01:37:07.567Z,94692.72
2023-01-03T01:45:30.623Z,94716.89
2023-01-03T01:53:55.852Z,94721.92
2023-01-03T02:02:22.301Z,94742.02
2023-01-03T02:11:06.810Z,94783.51
2023-01-03T02:19:59.997Z,94808.50
2023-01-03T02:28:41.892Z,94831.71
2023-01-03T02:37:15.842Z,94848.34
2023-01-03T02:45:53.976Z,94858.69
2023-01-03T02:54:42.112Z,94863.96
2023-01-03T03:03:11.717Z,94878.65
2023-01-03T03:11:56.723Z,94881.15
2023-01-03T03:20:38.408Z,94899.02
2023-01-03T03:29:08.499Z,94909.91
2023-01-03T03:37:35.924Z,94926.32
2023-01-03T03:46:10.435Z,94932.89
2023-01-03T03:54:36.855Z,94944.60
2023-01-03T04:03:02.733Z,94941.95
2023-01-03T04:11:27.056Z,94934.29
2023-01-03T04:19:49.946Z,94930.54
2023-01-03T04:28:12.783Z,94929.23
2023-01-03T04:36:36.046Z,94915.48
2023-01-03T04:44:58.905Z,94922.56
2023-01-03T04:53:23.597Z,94922.93
2023-01-03T05:01:52.313Z,94889.17
2023-01-03T05:10:15.523Z,94855.52
2023-01-03T05:18:39.305Z,94822.62
2023-01-03T05:27:05.449Z,94821.81
2023-01-03T05:35:28.211Z,94789.59
2023-01-03T05:43:50.983Z,94752.38
2023-01-03T05:52:13.847Z,94720.72
2023-01-03T06:00:36.730Z,94671.93
2023-01-03T06:09:00.008Z,94639.56
2023-01-03T06:17:41.714Z,94615.69
2023-01-03T06:26:04.622Z,94586.31
2023-01-03T06:34:27.398Z,94578.75
2023-01-03T06:42:50.210Z,94553.04
2023-01-03T06:51:37.253Z,94447.23
2023-01-03T07:00:00.108Z,94339.41
2023-01-03T07:08:23.084Z,94261.20
2023-01-03T07:16:47.868Z,94193.68
2023-01-03T07:25:12.228Z,94171.35
2023-01-03T07:33:37.259Z,94204.45
2023-01-03T07:42:18.940Z,94230.94
2023-01-03T07:50:42.462Z,94240.42
2023-01-03T07:59:05.252Z,94268.80
2023-01-03T08:07:28.018Z,94302.81
2023-01-03T08:15:55.823Z,94313.94
2023-01-03T08:24:18.750Z,94319.71
2023-01-03T08:32:41.849Z,94357.39
2023-01-03T08:41:08.722Z,94415.15
2023-01-03T08:49:32.347Z,94461.37
2023-01-03T08:57:55.271Z,94503.76
2023-01-03T09:06:18.940Z,94540.50
2023-01-03T09:14:41.878Z,94577.63
2023-01-03T09:23:04.708Z,94595.35
2023-01-03T09:31:29.370Z,94614.94
2023-01-03T09:39:52.314Z,94638.65
2023-01-03T09:48:18.564Z,94657.78
2023-01-03T09:57:00.032Z,94718.02
2023-01-03T10:05:43.324Z,94756.20
2023-01-03T10:14:42.753Z,94734.63
2023-01-03T10:23:08.035Z,94676.23
2023-01-03T10:32:09.206Z,94633.36
2023-01-03T10:40:48.164Z,94662.45
2023-01-03T10:49:30.594Z,94813.26
2023-01-03T10:57:53.476Z,94871.48
2023-01-03T11:06:16.456Z,94813.05
2023-01-03T11:14:39.306Z,94735.92
2023-01-03T11:23:08.774Z,94672.30
2023-01-03T11:31:52.613Z,94600.50
2023-01-03T11:40:15.491Z,94499.80
2023-01-03T11:49:03.228Z,94498.77
2023-01-03T11:58:02.432Z,94583.41
2023-01-03T12:07:47.029Z,94583.81
2023-01-03T12:16:08.859Z,94469.88
2023-01-03T12:24:39.386Z,94395.08
2023-01-03T12:33:13.463Z,94310.52
2023-01-03T12:41:55.013Z,94229.35
2023-01-03T12:50:41.443Z,94178.92
2023-01-03T12:59:23.281Z,94159.59
2023-01-03T13:07:54.835Z,94149.73
2023-01-03T13:17:04.762Z,94142.72
2023-01-03T13:25:42.762Z,94119.59
2023-01-03T13:34:18.389Z,94087.44
2023-01-03T13:42:41.310Z,94030.55
2023-01-03T13:51:17.778Z,93947.41
2023-01-03T13:59:48.029Z,93877.17
2023-01-03T14:08:24.102Z,93833.29
2023-01-03T14:16:52.278Z,93798.95
2023-01-03T14:25:36.710Z,93770.91
2023-01-03T14:34:02.904Z,93758.71
2023-01-03T14:42:26.536Z,93741.84
2023-01-03T14:50:49.678Z,93693.27
2023-01-03T14:59:16.706Z,93650.24
2023-01-03T15:07:43.440Z,93642.61
2023-01-03T15:16:18.957Z,93598.52
2023-01-03T15:24:44.981Z,93542.02
2023-01-03T15:33:34.441Z,93479.37
2023-01-03T15:42:43.595Z,93385.91
2023-01-03T15:51:04.547Z,93320.79
2023-01-03T15:59:30.194Z,93267.52
2023-01-03T16:07:52.987Z,93185.97
2023-01-03T16:16:22.087Z,93060.84
2023-01-03T16:24:45.485Z,92956.20
2023-01-03T16:33:25.634Z,92903.14
2023-01-03T16:42:08.446Z,92839.73
2023-01-03T16:50:34.040Z,92768.83
2023-01-03T16:58:57.048Z,92721.98
2023-01-03T17:07:23.757Z,92668.61
2023-01-03T17:15:46.633Z,92604.69
2023-01-03T17:24:19.899Z,92557.17
2023-01-03T17:32:43.079Z,92555.39
2023-01-03T17:41:05.913Z,92551.44
2023-01-03T17:49:28.825Z,92505.84
2023-01-03T17:57:52.049Z,92443.33
2023-01-03T18:06:19.743Z,92410.58
2023-01-03T18:14:42.549Z,92434.45
2023-01-03T18:23:16.389Z,92477.90
2023-01-03T18:31:39.653Z,92547.15
2023-01-03T18:40:05.751Z,92626.35
2023-01-03T18:48:30.806Z,92666.60
2023-01-03T18:56:53.635Z,92683.35
2023-01-03T19:05:17.157Z,92713.73
2023-01-03T19:13:53.287Z,92732.61
2023-01-03T19:22:30.731Z,92686.58
2023-01-03T19:30:53.554Z,92664.92
2023-01-03T19:39:22.423Z,92687.95
2023-01-03T19:47:48.104Z,92688.98
2023-01-03T19:56:21.456Z,92684.23
2023-01-03T20:04:45.162Z,92711.08
2023-01-03T20:13:17.187Z,92721.96
2023-01-03T20:21:39.990Z,92699.73
2023-01-03T20:30:02.877Z,92696.05
2023-01-03T20:38:27.290Z,92696.81
2023-01-03T20:46:53.737Z,92677.58
2023-01-03T20:55:19.089Z,92667.13
2023-01-03T21:03:41.956Z,92690.09
2023-01-03T21:12:04.994Z,92707.02
2023-01-03T21:20:29.769Z,92706.90
2023-01-03T21:28:52.904Z,92719.34
2023-01-03T21:37:16.041Z,92728.88
2023-01-03T21:45:46.421Z,92712.97
2023-01-03T21:54:09.771Z,92700.56
2023-01-03T22:02:57.858Z,92684.64
2023-01-03T22:11:24.928Z,92651.15
2023-01-03T22:19:47.765Z,92639.08
2023-01-03T22:28:10.526Z,92607.27
2023-01-03T22:36:33.406Z,92567.77
2023-01-03T22:44:56.250Z,92509.31
2023-01-03T22:53:19.121Z,92426.16
2023-01-03T23:01:42.817Z,92325.61
2023-01-03T23:10:06.417Z,92214.55
2023-01-03T23:18:33.124Z,92152.94
2023-01-03T23:26:55.987Z,92110.09
2023-01-03T23:35:18.938Z,92052.34
2023-01-03T23:43:42.268Z,91967.10
2023-01-03T23:52:05.424Z,91917.24
